Atlantic Clover — 3FVD6 — position and weather

sailwx.info

Track history (hours):
 
Tides and Currents Weather Stations Pressure Air Temp Water Temp Dewpoint Dewpoint Depression Visibility Wind Speed Wind Dir Waves Ship Positions

Atlantic Clover

Last reported at 2014-Dec-18 16:09 UTC. Time now 2014-Dec-19 23:31 UTC.
Position N 29°25' W 094°50'.

Length 180 m; draft 9.4 m.

Type: Cargo ship. MMSI: 371263000.

Date/timePositionNaut miles runAvg speedWind from/ knotsBaromVisibWave heightAir tempDewpointWater temp
2014-Dec-18 16:09N 29°25' W 094°50'712.4
2014-Dec-18 15:33N 29°32' W 094°54'1111.4
2014-Dec-18 14:33N 29°42' W 094°60'7 6.1
2014-Dec-18 13:29N 29°44' W 095°07'3 0.2
2014-Dec-18 01:29N 29°45' W 095°10'0 0.0
2014-Dec-17 15:32N 29°45' W 095°10'0 0.0
2014-Dec-17 14:32N 29°45' W 095°10'0 0.0
2014-Dec-16 19:32N 29°45' W 095°10'1 1.2
2014-Dec-16 18:34N 29°44' W 095°09'6 5.7
2014-Dec-16 17:33N 29°44' W 095°02'9 8.7
2014-Dec-16 16:33N 29°36' W 094°57'1111.1
2014-Dec-16 15:33N 29°27' W 094°51'3 0.4
2014-Dec-16 08:14N 29°30' W 094°52'811.9
2014-Dec-16 07:33N 29°36' W 094°57'9 8.8
2014-Dec-16 06:33N 29°44' W 095°03'7 6.6
2014-Dec-16 05:33N 29°45' W 095°10'0 0.2
2014-Dec-16 04:24N 29°45' W 095°10'0 0.0
2014-Dec-16 03:30N 29°45' W 095°10'0 0.0
2014-Dec-16 02:30N 29°45' W 095°10'0 0.0
2014-Dec-16 01:09N 29°45' W 095°10'0 0.0
2014-Dec-15 23:33N 29°45' W 095°10'0 0.0
2014-Dec-15 22:33N 29°45' W 095°10'0 0.0
2014-Dec-15 21:33N 29°45' W 095°10'0 0.0
2014-Dec-15 20:33N 29°45' W 095°10'0 0.0
2014-Dec-15 19:33N 29°45' W 095°10'0 0.0
2014-Dec-15 18:33N 29°45' W 095°10'0 0.0
2014-Dec-15 17:33N 29°45' W 095°10'0 0.0
2014-Dec-15 16:33N 29°45' W 095°10'0 0.0
2014-Dec-15 15:30N 29°45' W 095°10'0 0.0
2014-Dec-15 14:30N 29°45' W 095°10'0 0.0
2014-Dec-15 13:30N 29°45' W 095°10'0 0.0
2014-Dec-14 23:12N 29°45' W 095°10'0 0.0
2014-Dec-14 21:12N 29°45' W 095°10'0 0.0
2014-Dec-14 20:30N 29°45' W 095°10'0 0.0
2014-Dec-14 19:30N 29°45' W 095°10'0 0.0
2014-Dec-14 18:30N 29°45' W 095°10'0 0.0
2014-Dec-14 17:06N 29°45' W 095°10'0 0.0
2014-Dec-14 16:30N 29°45' W 095°10'0 0.0
2014-Dec-14 14:30N 29°45' W 095°10'0 0.0
2014-Dec-14 13:30N 29°45' W 095°10'0 0.0
2014-Dec-13 22:30N 29°45' W 095°10'0 0.0
2014-Dec-13 21:18N 29°45' W 095°10'0 0.0
2014-Dec-13 20:24N 29°45' W 095°10'0 0.0
2014-Dec-13 19:12N 29°45' W 095°10'0 0.0
2014-Dec-13 18:24N 29°45' W 095°10'0 0.0
2014-Dec-13 17:33N 29°45' W 095°10'0 0.0
2014-Dec-13 16:33N 29°45' W 095°10'0 0.0
2014-Dec-13 15:33N 29°45' W 095°10'0 0.0
2014-Dec-13 14:33N 29°45' W 095°10'0 0.0
2014-Dec-13 13:33N 29°45' W 095°10'0 0.0
2014-Dec-13 12:33N 29°45' W 095°10'0 0.0
2014-Dec-13 11:33N 29°45' W 095°10'0 0.0
2014-Dec-13 10:33N 29°45' W 095°10'0 0.0
2014-Dec-13 09:33N 29°45' W 095°10'0 0.0
2014-Dec-13 08:33N 29°45' W 095°10'0 0.0
2014-Dec-13 07:33N 29°45' W 095°10'0 0.0
2014-Dec-13 06:33N 29°45' W 095°10'0 0.0
2014-Dec-13 05:33N 29°45' W 095°10'0 0.0
2014-Dec-13 04:33N 29°45' W 095°10'0 0.0
2014-Dec-13 03:33N 29°45' W 095°10'0 0.0
2014-Dec-13 02:33N 29°45' W 095°10'0 0.0
2014-Dec-13 01:33N 29°45' W 095°10'0 0.0
2014-Dec-13 00:33N 29°45' W 095°10'0 0.0
2014-Dec-12 23:33N 29°45' W 095°10'0 0.0
2014-Dec-12 22:33N 29°45' W 095°10'0 0.0
2014-Dec-12 21:33N 29°45' W 095°10'0 0.0
2014-Dec-12 20:33N 29°45' W 095°10'0 0.0
2014-Dec-12 19:33N 29°45' W 095°10'0 0.0
2014-Dec-12 18:33N 29°45' W 095°10'0 0.0
2014-Dec-12 17:33N 29°45' W 095°10'0 0.0
2014-Dec-12 16:33N 29°45' W 095°10'0 0.0
2014-Dec-12 15:33N 29°45' W 095°10'0 0.0
2014-Dec-12 14:33N 29°45' W 095°10'0 0.0
2014-Dec-12 13:33N 29°45' W 095°10'0 0.0
2014-Dec-12 12:33N 29°45' W 095°10'0 0.0
2014-Dec-12 11:33N 29°45' W 095°10'0 0.0
2014-Dec-12 10:33N 29°45' W 095°10'0 0.0
2014-Dec-12 09:33N 29°45' W 095°10'0 0.0
2014-Dec-12 08:33N 29°45' W 095°10'0 0.0
2014-Dec-12 07:33N 29°45' W 095°10'0 0.0
2014-Dec-12 06:33N 29°45' W 095°10'0 0.0
2014-Dec-12 05:33N 29°45' W 095°10'0 0.0
2014-Dec-12 04:30N 29°45' W 095°10'0 0.0
2014-Dec-12 03:33N 29°45' W 095°10'0 0.0
2014-Dec-12 02:33N 29°45' W 095°10'0 0.0
2014-Dec-12 01:33N 29°45' W 095°10'0 0.0
2014-Dec-12 00:33N 29°45' W 095°10'0 0.0
2014-Dec-11 22:33N 29°45' W 095°10'0 0.0
2014-Dec-11 21:33N 29°45' W 095°10'0 0.0
2014-Dec-11 20:33N 29°45' W 095°10'0 0.0
2014-Dec-11 19:33N 29°45' W 095°10'0 0.0
2014-Dec-11 18:33N 29°45' W 095°10'0 0.0
2014-Dec-11 17:33N 29°45' W 095°10'0 0.0
2014-Dec-11 16:33N 29°45' W 095°10'0 0.0
2014-Dec-11 15:33N 29°45' W 095°10'0 0.0
2014-Dec-11 14:33N 29°45' W 095°10'0 0.0
2014-Dec-11 13:33N 29°45' W 095°10'0 0.0
2014-Dec-11 12:30N 29°45' W 095°10'0 0.0
2014-Dec-11 11:33N 29°45' W 095°10'0 0.0
2014-Dec-11 10:33N 29°45' W 095°10'0 0.0
2014-Dec-11 09:33N 29°45' W 095°10'0 0.0
2014-Dec-11 08:33N 29°45' W 095°10'0 0.0
2014-Dec-11 07:33N 29°45' W 095°10'0 0.0
2014-Dec-11 06:33N 29°45' W 095°10'0 0.0
2014-Dec-11 05:33N 29°45' W 095°10'0 0.0
2014-Dec-11 04:30N 29°45' W 095°10'0 0.0
2014-Dec-11 03:33N 29°45' W 095°10'0 0.0
2014-Dec-11 02:33N 29°45' W 095°10'0 0.0
2014-Dec-11 01:33N 29°45' W 095°10'0 0.0
2014-Dec-11 00:33N 29°45' W 095°10'0 0.0
2014-Dec-10 23:33N 29°45' W 095°10'0 0.0
2014-Dec-10 22:33N 29°45' W 095°10'0 0.0
2014-Dec-10 21:33N 29°45' W 095°10'0 0.0
2014-Dec-10 20:33N 29°45' W 095°10'0 0.0
2014-Dec-10 19:33N 29°45' W 095°10'0 0.0
2014-Dec-10 18:33N 29°45' W 095°10'0 0.0
2014-Dec-10 17:33N 29°45' W 095°10'0 0.0
2014-Dec-10 16:33N 29°45' W 095°10'0 0.0
2014-Dec-10 15:33N 29°45' W 095°10'0 0.0
2014-Dec-10 14:33N 29°45' W 095°10'0 0.0
2014-Dec-10 13:33N 29°45' W 095°10'0 0.0
2014-Dec-10 12:33N 29°45' W 095°10'0 0.0
2014-Dec-10 11:30N 29°45' W 095°10'0 0.0
2014-Dec-10 10:33N 29°45' W 095°10'0 0.0
2014-Dec-10 09:33N 29°45' W 095°10'0 0.0
2014-Dec-10 08:33N 29°45' W 095°10'0 0.0
2014-Dec-10 07:33N 29°45' W 095°10'0 0.0
2014-Dec-10 06:33N 29°45' W 095°10'0 0.0
2014-Dec-10 05:33N 29°45' W 095°10'0 0.0
2014-Dec-10 04:33N 29°45' W 095°10'0 0.0
2014-Dec-10 03:33N 29°45' W 095°10'0 0.0
2014-Dec-10 02:27N 29°45' W 095°10'0 0.0
2014-Dec-10 01:33N 29°45' W 095°10'0 0.0
2014-Dec-10 00:33N 29°45' W 095°10'0 0.0
2014-Dec-09 23:30N 29°45' W 095°10'0 0.0
2014-Dec-09 22:33N 29°45' W 095°10'0 0.0
2014-Dec-09 21:33N 29°45' W 095°10'0 0.0
2014-Dec-09 20:33N 29°45' W 095°10'0 0.0
2014-Dec-09 19:30N 29°45' W 095°10'0 0.0
2014-Dec-09 18:33N 29°45' W 095°10'0 0.0
2014-Dec-09 17:33N 29°45' W 095°10'0 0.0
2014-Dec-09 16:33N 29°45' W 095°10'0 0.0
2014-Dec-09 15:33N 29°45' W 095°10'0 0.0
2014-Dec-09 14:33N 29°45' W 095°10'0 0.0
2014-Dec-09 13:33N 29°45' W 095°10'0 0.0
2014-Dec-09 12:33N 29°45' W 095°10'0 0.0
2014-Dec-09 11:33N 29°45' W 095°10'0 0.0
2014-Dec-09 10:33N 29°45' W 095°10'0 0.0
2014-Dec-09 09:33N 29°45' W 095°10'0 0.0
2014-Dec-09 08:33N 29°45' W 095°10'0 0.0
2014-Dec-09 07:33N 29°45' W 095°10'0 0.0
2014-Dec-09 06:33N 29°45' W 095°10'0 0.0
2014-Dec-09 05:33N 29°45' W 095°10'0 0.0
2014-Dec-09 04:33N 29°45' W 095°10'0 0.0
2014-Dec-09 03:33N 29°45' W 095°10'0 0.0
2014-Dec-09 02:30N 29°45' W 095°10'0 0.0
2014-Dec-09 01:33N 29°45' W 095°10'0 0.0
2014-Dec-09 00:33N 29°45' W 095°10'0 0.0
2014-Dec-08 23:30N 29°45' W 095°10'0 0.0
2014-Dec-08 22:33N 29°45' W 095°10'0 0.0
2014-Dec-08 21:33N 29°45' W 095°10'0 0.0
2014-Dec-08 20:33N 29°45' W 095°10'0 0.0
2014-Dec-08 19:33N 29°45' W 095°10'0 0.0
2014-Dec-08 18:33N 29°45' W 095°10'0 0.0
2014-Dec-08 17:30N 29°45' W 095°10'0 0.0
2014-Dec-08 16:33N 29°45' W 095°10'  
Track history (hours):
 
Tides and Currents Weather Stations Pressure Air Temp Water Temp Dewpoint Dewpoint Depression Visibility Wind Speed Wind Dir Waves Ship Positions

Atlantic Clover

Last reported at 2014-Dec-18 16:09 UTC. Time now 2014-Dec-19 23:31 UTC.
Position N 29°25' W 094°50'.

Length 180 m; draft 9.4 m.

Type: Cargo ship. MMSI: 371263000.

Date/timePositionNaut miles runAvg speedWind from/ knotsBaromVisibWave heightAir tempDewpointWater temp
2014-Dec-18 16:09N 29°25' W 094°50'712.4
2014-Dec-18 15:33N 29°32' W 094°54'1111.4
2014-Dec-18 14:33N 29°42' W 094°60'7 6.1
2014-Dec-18 13:29N 29°44' W 095°07'3 0.2
2014-Dec-18 01:29N 29°45' W 095°10'0 0.0
2014-Dec-17 15:32N 29°45' W 095°10'0 0.0
2014-Dec-17 14:32N 29°45' W 095°10'0 0.0
2014-Dec-16 19:32N 29°45' W 095°10'1 1.2
2014-Dec-16 18:34N 29°44' W 095°09'6 5.7
2014-Dec-16 17:33N 29°44' W 095°02'9 8.7
2014-Dec-16 16:33N 29°36' W 094°57'1111.1
2014-Dec-16 15:33N 29°27' W 094°51'3 0.4
2014-Dec-16 08:14N 29°30' W 094°52'811.9
2014-Dec-16 07:33N 29°36' W 094°57'9 8.8
2014-Dec-16 06:33N 29°44' W 095°03'7 6.6
2014-Dec-16 05:33N 29°45' W 095°10'0 0.2
2014-Dec-16 04:24N 29°45' W 095°10'0 0.0
2014-Dec-16 03:30N 29°45' W 095°10'0 0.0
2014-Dec-16 02:30N 29°45' W 095°10'0 0.0
2014-Dec-16 01:09N 29°45' W 095°10'0 0.0
2014-Dec-15 23:33N 29°45' W 095°10'0 0.0
2014-Dec-15 22:33N 29°45' W 095°10'0 0.0
2014-Dec-15 21:33N 29°45' W 095°10'0 0.0
2014-Dec-15 20:33N 29°45' W 095°10'0 0.0
2014-Dec-15 19:33N 29°45' W 095°10'0 0.0
2014-Dec-15 18:33N 29°45' W 095°10'0 0.0
2014-Dec-15 17:33N 29°45' W 095°10'0 0.0
2014-Dec-15 16:33N 29°45' W 095°10'0 0.0
2014-Dec-15 15:30N 29°45' W 095°10'0 0.0
2014-Dec-15 14:30N 29°45' W 095°10'0 0.0
2014-Dec-15 13:30N 29°45' W 095°10'0 0.0
2014-Dec-14 23:12N 29°45' W 095°10'0 0.0
2014-Dec-14 21:12N 29°45' W 095°10'0 0.0
2014-Dec-14 20:30N 29°45' W 095°10'0 0.0
2014-Dec-14 19:30N 29°45' W 095°10'0 0.0
2014-Dec-14 18:30N 29°45' W 095°10'0 0.0
2014-Dec-14 17:06N 29°45' W 095°10'0 0.0
2014-Dec-14 16:30N 29°45' W 095°10'0 0.0
2014-Dec-14 14:30N 29°45' W 095°10'0 0.0
2014-Dec-14 13:30N 29°45' W 095°10'0 0.0
2014-Dec-13 22:30N 29°45' W 095°10'0 0.0
2014-Dec-13 21:18N 29°45' W 095°10'0 0.0
2014-Dec-13 20:24N 29°45' W 095°10'0 0.0
2014-Dec-13 19:12N 29°45' W 095°10'0 0.0
2014-Dec-13 18:24N 29°45' W 095°10'0 0.0
2014-Dec-13 17:33N 29°45' W 095°10'0 0.0
2014-Dec-13 16:33N 29°45' W 095°10'0 0.0
2014-Dec-13 15:33N 29°45' W 095°10'0 0.0
2014-Dec-13 14:33N 29°45' W 095°10'0 0.0
2014-Dec-13 13:33N 29°45' W 095°10'0 0.0
2014-Dec-13 12:33N 29°45' W 095°10'0 0.0
2014-Dec-13 11:33N 29°45' W 095°10'0 0.0
2014-Dec-13 10:33N 29°45' W 095°10'0 0.0
2014-Dec-13 09:33N 29°45' W 095°10'0 0.0
2014-Dec-13 08:33N 29°45' W 095°10'0 0.0
2014-Dec-13 07:33N 29°45' W 095°10'0 0.0
2014-Dec-13 06:33N 29°45' W 095°10'0 0.0
2014-Dec-13 05:33N 29°45' W 095°10'0 0.0
2014-Dec-13 04:33N 29°45' W 095°10'0 0.0
2014-Dec-13 03:33N 29°45' W 095°10'0 0.0
2014-Dec-13 02:33N 29°45' W 095°10'0 0.0
2014-Dec-13 01:33N 29°45' W 095°10'0 0.0
2014-Dec-13 00:33N 29°45' W 095°10'0 0.0
2014-Dec-12 23:33N 29°45' W 095°10'0 0.0
2014-Dec-12 22:33N 29°45' W 095°10'0 0.0
2014-Dec-12 21:33N 29°45' W 095°10'0 0.0
2014-Dec-12 20:33N 29°45' W 095°10'0 0.0
2014-Dec-12 19:33N 29°45' W 095°10'0 0.0
2014-Dec-12 18:33N 29°45' W 095°10'0 0.0
2014-Dec-12 17:33N 29°45' W 095°10'0 0.0
2014-Dec-12 16:33N 29°45' W 095°10'0 0.0
2014-Dec-12 15:33N 29°45' W 095°10'0 0.0
2014-Dec-12 14:33N 29°45' W 095°10'0 0.0
2014-Dec-12 13:33N 29°45' W 095°10'0 0.0
2014-Dec-12 12:33N 29°45' W 095°10'0 0.0
2014-Dec-12 11:33N 29°45' W 095°10'0 0.0
2014-Dec-12 10:33N 29°45' W 095°10'0 0.0
2014-Dec-12 09:33N 29°45' W 095°10'0 0.0
2014-Dec-12 08:33N 29°45' W 095°10'0 0.0
2014-Dec-12 07:33N 29°45' W 095°10'0 0.0
2014-Dec-12 06:33N 29°45' W 095°10'0 0.0
2014-Dec-12 05:33N 29°45' W 095°10'0 0.0
2014-Dec-12 04:30N 29°45' W 095°10'0 0.0
2014-Dec-12 03:33N 29°45' W 095°10'0 0.0
2014-Dec-12 02:33N 29°45' W 095°10'0 0.0
2014-Dec-12 01:33N 29°45' W 095°10'0 0.0
2014-Dec-12 00:33N 29°45' W 095°10'0 0.0
2014-Dec-11 22:33N 29°45' W 095°10'0 0.0
2014-Dec-11 21:33N 29°45' W 095°10'0 0.0
2014-Dec-11 20:33N 29°45' W 095°10'0 0.0
2014-Dec-11 19:33N 29°45' W 095°10'0 0.0
2014-Dec-11 18:33N 29°45' W 095°10'0 0.0
2014-Dec-11 17:33N 29°45' W 095°10'0 0.0
2014-Dec-11 16:33N 29°45' W 095°10'0 0.0
2014-Dec-11 15:33N 29°45' W 095°10'0 0.0
2014-Dec-11 14:33N 29°45' W 095°10'0 0.0
2014-Dec-11 13:33N 29°45' W 095°10'0 0.0
2014-Dec-11 12:30N 29°45' W 095°10'0 0.0
2014-Dec-11 11:33N 29°45' W 095°10'0 0.0
2014-Dec-11 10:33N 29°45' W 095°10'0 0.0
2014-Dec-11 09:33N 29°45' W 095°10'0 0.0
2014-Dec-11 08:33N 29°45' W 095°10'0 0.0
2014-Dec-11 07:33N 29°45' W 095°10'0 0.0
2014-Dec-11 06:33N 29°45' W 095°10'0 0.0
2014-Dec-11 05:33N 29°45' W 095°10'0 0.0
2014-Dec-11 04:30N 29°45' W 095°10'0 0.0
2014-Dec-11 03:33N 29°45' W 095°10'0 0.0
2014-Dec-11 02:33N 29°45' W 095°10'0 0.0
2014-Dec-11 01:33N 29°45' W 095°10'0 0.0
2014-Dec-11 00:33N 29°45' W 095°10'0 0.0
2014-Dec-10 23:33N 29°45' W 095°10'0 0.0
2014-Dec-10 22:33N 29°45' W 095°10'0 0.0
2014-Dec-10 21:33N 29°45' W 095°10'0 0.0
2014-Dec-10 20:33N 29°45' W 095°10'0 0.0
2014-Dec-10 19:33N 29°45' W 095°10'0 0.0
2014-Dec-10 18:33N 29°45' W 095°10'0 0.0
2014-Dec-10 17:33N 29°45' W 095°10'0 0.0
2014-Dec-10 16:33N 29°45' W 095°10'0 0.0
2014-Dec-10 15:33N 29°45' W 095°10'0 0.0
2014-Dec-10 14:33N 29°45' W 095°10'0 0.0
2014-Dec-10 13:33N 29°45' W 095°10'0 0.0
2014-Dec-10 12:33N 29°45' W 095°10'0 0.0
2014-Dec-10 11:30N 29°45' W 095°10'0 0.0
2014-Dec-10 10:33N 29°45' W 095°10'0 0.0
2014-Dec-10 09:33N 29°45' W 095°10'0 0.0
2014-Dec-10 08:33N 29°45' W 095°10'0 0.0
2014-Dec-10 07:33N 29°45' W 095°10'0 0.0
2014-Dec-10 06:33N 29°45' W 095°10'0 0.0
2014-Dec-10 05:33N 29°45' W 095°10'0 0.0
2014-Dec-10 04:33N 29°45' W 095°10'0 0.0
2014-Dec-10 03:33N 29°45' W 095°10'0 0.0
2014-Dec-10 02:27N 29°45' W 095°10'0 0.0
2014-Dec-10 01:33N 29°45' W 095°10'0 0.0
2014-Dec-10 00:33N 29°45' W 095°10'0 0.0
2014-Dec-09 23:30N 29°45' W 095°10'0 0.0
2014-Dec-09 22:33N 29°45' W 095°10'0 0.0
2014-Dec-09 21:33N 29°45' W 095°10'0 0.0
2014-Dec-09 20:33N 29°45' W 095°10'0 0.0
2014-Dec-09 19:30N 29°45' W 095°10'0 0.0
2014-Dec-09 18:33N 29°45' W 095°10'0 0.0
2014-Dec-09 17:33N 29°45' W 095°10'0 0.0
2014-Dec-09 16:33N 29°45' W 095°10'0 0.0
2014-Dec-09 15:33N 29°45' W 095°10'0 0.0
2014-Dec-09 14:33N 29°45' W 095°10'0 0.0
2014-Dec-09 13:33N 29°45' W 095°10'0 0.0
2014-Dec-09 12:33N 29°45' W 095°10'0 0.0
2014-Dec-09 11:33N 29°45' W 095°10'0 0.0
2014-Dec-09 10:33N 29°45' W 095°10'0 0.0
2014-Dec-09 09:33N 29°45' W 095°10'0 0.0
2014-Dec-09 08:33N 29°45' W 095°10'0 0.0
2014-Dec-09 07:33N 29°45' W 095°10'0 0.0
2014-Dec-09 06:33N 29°45' W 095°10'0 0.0
2014-Dec-09 05:33N 29°45' W 095°10'0 0.0
2014-Dec-09 04:33N 29°45' W 095°10'0 0.0
2014-Dec-09 03:33N 29°45' W 095°10'0 0.0
2014-Dec-09 02:30N 29°45' W 095°10'0 0.0
2014-Dec-09 01:33N 29°45' W 095°10'0 0.0
2014-Dec-09 00:33N 29°45' W 095°10'0 0.0
2014-Dec-08 23:30N 29°45' W 095°10'0 0.0
2014-Dec-08 22:33N 29°45' W 095°10'0 0.0
2014-Dec-08 21:33N 29°45' W 095°10'0 0.0
2014-Dec-08 20:33N 29°45' W 095°10'0 0.0
2014-Dec-08 19:33N 29°45' W 095°10'0 0.0
2014-Dec-08 18:33N 29°45' W 095°10'0 0.0
2014-Dec-08 17:30N 29°45' W 095°10'0 0.0
2014-Dec-08 16:33N 29°45' W 095°10'  

Dump ship's entire track history